Time;durP1;ratioP1;P1;durP2;ratioP2;P2;SDS_P1;SDS_P2;PMS_P1;PMS_P2;Temp;Humidity;BMP_temperature;BMP_pressure;BME280_temperature;BME280_humidity;BME280_pressure;Samples;Min_cycle;Max_cycle;Signal;HPM_P1;HPM_P2
2023/05/13 00:23:54;;;;;;;;;;;;;;;;;;;;;
2023/05/13 00:39:59;;;;;;;9.90;7.80;;;14.90;99.90;;;;;;3998632;29;20271;-94
2023/05/13 00:42:42;;;;;;;;;;;;;;;;;;;;;
2023/05/13 01:10:41;;;;;;;17.42;14.52;;;15.00;99.90;;;;;;3984574;29;20322;-94
2023/05/13 01:18:13;;;;;;;;;;;;;;;;;;;;;
2023/05/13 01:21:12;;;;;;;22.40;16.95;;;14.80;99.90;;;;;;3910537;30;20351;-95
2023/05/13 01:38:43;;;;;;;;;;;;;;;;;;;;;
2023/05/13 01:45:59;;;;;;;37.92;26.92;;;14.70;99.90;;;;;;3916343;30;20221;-95
2023/05/13 01:49:08;;;;;;;;;;;;;;;;;;;;;
2023/05/13 02:02:02;;;;;;;56.30;32.67;;;14.70;99.90;;;;;;3930690;30;20204;-95
2023/05/13 02:04:54;;;;;;;;;;;;;;;;;;;;;
2023/05/13 02:08:11;;;;;;;51.88;33.20;;;14.80;99.90;;;;;;3928578;30;20229;-94
2023/05/13 02:14:16;;;;;;;48.80;32.88;;;14.90;99.90;;;;;;3943890;30;20192;-93
2023/05/13 02:20:50;;;;;;;56.38;35.53;;;14.80;99.90;;;;;;4043411;29;20294;-94
2023/05/13 02:24:30;;;;;;;;;;;;;;;;;;;;;
2023/05/13 02:31:45;;;;;;;;;;;;;;;;;;;;;
2023/05/13 02:39:46;;;;;;;60.42;37.70;;;14.80;99.90;;;;;;4008522;29;20201;-96
2023/05/13 02:42:19;;;;;;;62.05;38.92;;;14.80;99.90;;;;;;3988504;29;20194;-95
2023/05/13 02:45:24;;;;;;;;;;;;;;;;;;;;;
2023/05/13 03:05:22;;;;;;;66.43;40.47;;;14.60;99.90;;;;;;3924697;30;20222;-96
2023/05/13 03:11:01;;;;;;;;;;;;;;;;;;;;;
2023/05/13 03:14:43;;;;;;;;;;;;;;;;;;;;;
2023/05/13 03:17:43;;;;;;;;;;;;;;;;;;;;;
2023/05/13 03:27:55;;;;;;;;;;;;;;;;;;;;;
2023/05/13 03:35:07;;;;;;;;;;;;;;;;;;;;;
2023/05/13 04:06:04;;;;;;;;;;;;;;;;;;;;;
2023/05/13 04:16:35;;;;;;;;;;;;;;;;;;;;;
2023/05/13 04:23:33;;;;;;;76.25;40.22;;;14.30;99.90;;;;;;3934897;30;20214;-94
2023/05/13 04:27:29;;;;;;;;;;;;;;;;;;;;;
2023/05/13 04:31:02;;;;;;;;;;;;;;;;;;;;;
2023/05/13 04:41:33;;;;;;;;;;;;;;;;;;;;;
2023/05/13 04:45:07;;;;;;;;;;;;;;;;;;;;;
2023/05/13 04:48:50;;;;;;;;;;;;;;;;;;;;;
2023/05/13 04:51:31;;;;;;;54.30;34.90;;;14.40;99.90;;;;;;4009430;29;20222;-94
2023/05/13 04:54:56;;;;;;;57.28;35.38;;;14.50;99.90;;;;;;4008606;29;20660;-94
2023/05/13 04:57:25;;;;;;;;;;;;;;;;;;;;;
2023/05/13 05:00:18;;;;;;;;;;;;;;;;;;;;;
2023/05/13 05:06:26;;;;;;;;;;;;;;;;;;;;;
2023/05/13 05:12:37;;;;;;;45.63;29.98;;;14.90;99.90;;;;;;4051772;29;20176;-94
2023/05/13 05:15:14;;;;;;;42.30;29.90;;;15.00;99.90;;;;;;4038332;29;20232;-94
2023/05/13 05:17:58;;;;;;;41.95;28.63;;;14.90;99.90;;;;;;4034012;29;20185;-94
2023/05/13 05:20:46;;;;;;;40.10;27.08;;;14.80;99.90;;;;;;4020812;29;20337;-93
2023/05/13 05:23:16;;;;;;;;;;;;;;;;;;;;;
2023/05/13 05:26:11;;;;;;;40.92;27.63;;;15.20;99.90;;;;;;4053354;29;20201;-93
2023/05/13 05:28:47;;;;;;;77.35;26.65;;;15.30;99.90;;;;;;4037361;29;20193;-93
2023/05/13 05:31:38;;;;;;;;;;;;;;;;;;;;;
2023/05/13 05:34:14;;;;;;;94.95;27.67;;;15.30;99.90;;;;;;4052237;29;20613;-94
2023/05/13 05:36:24;;;;;;;43.35;23.75;;;15.50;99.90;;;;;;4037431;29;20209;-94
2023/05/13 05:38:46;;;;;;;;;;;;;;;;;;;;;
2023/05/13 05:41:30;;;;;;;37.00;21.13;;;15.70;99.90;;;;;;4037319;29;20241;-94
2023/05/13 05:44:26;;;;;;;30.33;19.67;;;15.80;99.90;;;;;;4039987;29;20181;-95
2023/05/13 05:47:16;;;;;;;24.55;18.30;;;15.80;99.90;;;;;;4034287;29;20193;-94
2023/05/13 05:49:42;;;;;;;25.48;18.70;;;15.70;99.90;;;;;;4036971;29;20233;-95
2023/05/13 05:54:38;;;;;;;24.70;17.92;;;16.70;99.90;;;;;;4037146;29;20217;-94
2023/05/13 05:56:59;;;;;;;25.83;18.10;;;16.90;99.90;;;;;;4037023;29;20192;-93
2023/05/13 05:59:01;;;;;;;23.77;16.70;;;16.90;99.90;;;;;;4037452;29;20182;-93
2023/05/13 06:01:07;;;;;;;27.25;17.25;;;16.90;99.90;;;;;;4039878;29;20174;-93
2023/05/13 06:03:08;;;;;;;22.15;16.00;;;16.50;99.90;;;;;;4040484;29;20182;-94
2023/05/13 06:05:30;;;;;;;19.13;15.32;;;16.30;99.90;;;;;;4041911;29;20213;-92
2023/05/13 06:07:31;;;;;;;23.15;14.40;;;16.20;99.90;;;;;;4040719;29;20178;-93
2023/05/13 06:09:41;;;;;;;22.00;15.23;;;16.10;99.90;;;;;;4040311;29;20224;-94
2023/05/13 06:11:50;;;;;;;21.95;14.55;;;16.00;99.90;;;;;;4025139;29;20286;-92
2023/05/13 06:13:52;;;;;;;26.30;14.20;;;16.00;99.90;;;;;;4040175;29;20176;-94
2023/05/13 06:15:53;;;;;;;23.73;13.60;;;16.30;99.90;;;;;;4040177;29;20189;-95
2023/05/13 06:17:55;;;;;;;21.35;13.63;;;16.30;99.90;;;;;;4024718;29;20174;-95
2023/05/13 06:19:59;;;;;;;14.02;12.15;;;16.30;99.90;;;;;;4040027;29;20177;-94
2023/05/13 06:22:02;;;;;;;20.50;12.73;;;16.20;99.90;;;;;;4024583;29;20679;-94
2023/05/13 06:24:04;;;;;;;24.73;12.02;;;16.20;99.90;;;;;;4024451;29;20702;-93
2023/05/13 06:26:13;;;;;;;18.35;11.77;;;16.20;99.90;;;;;;4040282;29;20234;-93
2023/05/13 06:28:14;;;;;;;17.48;10.90;;;16.20;99.90;;;;;;4024831;29;20607;-93
2023/05/13 06:30:18;;;;;;;17.05;10.52;;;16.40;99.90;;;;;;4039902;29;20189;-94
2023/05/13 06:32:34;;;;;;;13.60;10.88;;;16.50;99.90;;;;;;4039961;29;20223;-93
2023/05/13 06:34:44;;;;;;;16.10;10.35;;;16.50;99.90;;;;;;4024427;29;20209;-94
2023/05/13 06:36:57;;;;;;;15.55;10.00;;;16.70;99.90;;;;;;4039615;29;20276;-94
2023/05/13 06:38:59;;;;;;;13.65;9.98;;;16.70;99.90;;;;;;4024460;29;20614;-92
2023/05/13 06:41:03;;;;;;;16.88;9.85;;;16.60;99.90;;;;;;4024423;29;20193;-95
2023/05/13 06:43:07;;;;;;;16.15;9.63;;;16.50;99.90;;;;;;4040032;29;20178;-94
2023/05/13 06:45:12;;;;;;;16.98;9.07;;;16.50;99.90;;;;;;4055310;29;20205;-94
2023/05/13 06:47:21;;;;;;;14.23;8.70;;;16.70;99.90;;;;;;4039544;29;20178;-94
2023/05/13 06:49:33;;;;;;;15.50;9.57;;;16.90;99.90;;;;;;4024356;29;20303;-94
2023/05/13 06:51:36;;;;;;;15.57;9.55;;;17.00;99.90;;;;;;4040270;29;20581;-93
2023/05/13 06:53:40;;;;;;;26.42;8.63;;;16.90;99.90;;;;;;4056405;29;20181;-93
2023/05/13 06:55:44;;;;;;;14.38;8.65;;;17.00;99.90;;;;;;4025580;29;20647;-94
2023/05/13 06:57:49;;;;;;;16.38;9.25;;;17.00;99.90;;;;;;4039538;29;20193;-94
2023/05/13 06:59:53;;;;;;;13.52;8.25;;;17.00;99.90;;;;;;4039837;29;20536;-94
2023/05/13 07:01:57;;;;;;;11.35;8.23;;;17.10;99.90;;;;;;4039642;29;20185;-96
2023/05/13 07:03:58;;;;;;;10.07;7.53;;;17.10;99.90;;;;;;4039924;29;20272;-93
2023/05/13 07:08:31;;;;;;;11.57;7.30;;;17.40;99.90;;;;;;4039721;29;20192;-93
2023/05/13 07:10:33;;;;;;;33.38;9.50;;;17.60;99.90;;;;;;4039652;29;20262;-95
2023/05/13 07:12:33;;;;;;;14.10;7.00;;;18.30;99.90;;;;;;4023301;29;20175;-94
2023/05/13 07:14:48;;;;;;;13.25;7.47;;;19.00;99.90;;;;;;4039500;29;20200;-94
2023/05/13 07:16:48;;;;;;;17.92;7.47;;;19.70;99.90;;;;;;4039373;29;20197;-95
2023/05/13 07:19:03;;;;;;;9.40;6.82;;;20.60;99.90;;;;;;4055088;29;20233;-95
2023/05/13 07:21:05;;;;;;;9.82;6.38;;;21.10;99.90;;;;;;4023895;29;20182;-96
2023/05/13 07:23:06;;;;;;;13.52;6.28;;;20.80;99.90;;;;;;4039495;29;20578;-94
2023/05/13 07:25:07;;;;;;;12.70;6.32;;;21.10;99.90;;;;;;4039259;29;20208;-96
2023/05/13 07:27:08;;;;;;;13.32;5.60;;;20.10;99.90;;;;;;4024484;29;20673;-94
2023/05/13 07:29:21;;;;;;;11.90;6.60;;;19.70;99.90;;;;;;4038988;29;20216;-94
2023/05/13 07:32:04;;;;;;;12.68;6.25;;;19.40;99.90;;;;;;4039023;29;20520;-96
2023/05/13 07:33:46;;;;;;;10.98;6.78;;;19.50;99.90;;;;;;4031509;29;20262;-95
2023/05/13 07:35:54;;;;;;;12.55;5.90;;;20.20;99.90;;;;;;4039244;29;20286;-95
2023/05/13 07:38:08;;;;;;;11.38;6.18;;;20.80;99.90;;;;;;4023894;29;20193;-95
2023/05/13 07:40:24;;;;;;;11.65;5.93;;;21.50;99.90;;;;;;4024188;29;20221;-95
2023/05/13 07:42:56;;;;;;;12.85;6.68;;;21.70;99.90;;;;;;4039105;29;20186;-94
2023/05/13 07:45:08;;;;;;;15.82;6.40;;;22.30;99.90;;;;;;4037403;29;20265;-94
2023/05/13 07:47:09;;;;;;;9.85;6.38;;;22.80;99.90;;;;;;4023110;29;20185;-96
2023/05/13 07:49:13;;;;;;;11.10;6.05;;;23.00;99.90;;;;;;4038681;29;20213;-96
2023/05/13 07:51:17;;;;;;;11.07;5.80;;;23.10;99.90;;;;;;4023377;29;20182;-95
2023/05/13 07:53:18;;;;;;;13.63;7.30;;;24.20;99.90;;;;;;4038854;29;20201;-95
2023/05/13 07:55:33;;;;;;;11.93;6.30;;;24.20;99.90;;;;;;4022998;29;20241;-95
2023/05/13 07:57:41;;;;;;;10.35;5.72;;;23.80;99.90;;;;;;4024410;29;20198;-95
2023/05/13 07:59:45;;;;;;;12.10;5.70;;;24.60;99.90;;;;;;4039069;29;20596;-96
2023/05/13 08:02:01;;;;;;;13.18;5.93;;;25.40;99.90;;;;;;4023172;29;20281;-94
2023/05/13 08:04:10;;;;;;;10.35;5.93;;;25.80;99.90;;;;;;4039404;29;20349;-95
2023/05/13 08:06:22;;;;;;;11.18;5.60;;;25.50;99.90;;;;;;4024902;29;20174;-94
2023/05/13 08:08:55;;;;;;;;;;;;;;;;;;;;;
2023/05/13 08:11:21;;;;;;;10.00;6.00;;;25.90;99.90;;;;;;4033277;29;20649;-94
2023/05/13 08:13:25;;;;;;;14.20;6.72;;;25.30;99.90;;;;;;4022877;29;20202;-95
2023/05/13 08:15:28;;;;;;;8.93;6.53;;;24.50;99.90;;;;;;4023673;29;20245;-93
2023/05/13 08:17:35;;;;;;;16.58;6.65;;;23.20;99.90;;;;;;4039466;29;20185;-93
2023/05/13 08:19:36;;;;;;;10.38;7.18;;;23.30;99.90;;;;;;4039571;29;20558;-94
2023/05/13 08:22:03;;;;;;;12.38;7.18;;;23.10;99.90;;;;;;4039257;29;20265;-95
2023/05/13 08:24:05;;;;;;;13.05;7.40;;;22.40;99.90;;;;;;4051909;29;20212;-96
2023/05/13 08:26:11;;;;;;;13.85;7.15;;;20.90;99.90;;;;;;4038679;29;20182;-96
2023/05/13 08:28:17;;;;;;;10.50;6.88;;;20.20;99.90;;;;;;4023479;29;20183;-96
2023/05/13 08:30:26;;;;;;;13.50;7.25;;;19.60;99.90;;;;;;4038438;29;20221;-96
2023/05/13 08:32:27;;;;;;;12.57;6.95;;;20.10;99.90;;;;;;4038324;29;20173;-94
2023/05/13 08:34:28;;;;;;;13.07;6.88;;;21.40;99.90;;;;;;4038445;29;20285;-95
2023/05/13 08:36:29;;;;;;;14.15;7.47;;;21.90;99.90;;;;;;4038326;29;20314;-96
2023/05/13 08:38:46;;;;;;;;;;;;;;;;;;;;;
2023/05/13 08:40:56;;;;;;;13.82;8.05;;;22.60;99.90;;;;;;4038888;29;20185;-96
2023/05/13 08:43:01;;;;;;;11.52;7.72;;;22.30;99.90;;;;;;4038456;29;20181;-95
2023/05/13 08:45:15;;;;;;;10.38;6.35;;;22.40;99.90;;;;;;4024560;29;20201;-95
2023/05/13 08:47:55;;;;;;;16.77;6.95;;;22.40;99.90;;;;;;4023772;29;20586;-95
2023/05/13 08:49:56;;;;;;;11.98;6.63;;;22.90;99.90;;;;;;4034318;29;20232;-96
2023/05/13 08:51:59;;;;;;;14.32;7.18;;;22.90;99.90;;;;;;4040880;29;20552;-96
2023/05/13 08:54:06;;;;;;;16.10;7.88;;;23.50;99.90;;;;;;4025034;29;20245;-95
2023/05/13 08:56:16;;;;;;;16.83;7.45;;;23.50;99.90;;;;;;4023525;29;20177;-94
2023/05/13 08:58:28;;;;;;;9.95;7.20;;;24.00;99.90;;;;;;4024809;29;20555;-94
2023/05/13 09:00:38;;;;;;;8.93;6.45;;;24.10;99.90;;;;;;4039710;29;20181;-93
2023/05/13 09:02:46;;;;;;;14.13;7.25;;;24.30;99.90;;;;;;4025364;29;20201;-94
2023/05/13 09:04:51;;;;;;;14.23;6.97;;;24.30;99.90;;;;;;4023151;29;20190;-94
2023/05/13 09:06:53;;;;;;;10.63;6.45;;;24.00;99.90;;;;;;4022802;29;20177;-96
2023/05/13 09:09:05;;;;;;;8.15;6.40;;;23.80;99.90;;;;;;4023195;29;20213;-95
2023/05/13 09:11:47;;;;;;;9.63;6.78;;;24.10;99.90;;;;;;4041558;29;20192;-94
2023/05/13 09:14:10;;;;;;;11.07;6.15;;;24.20;99.90;;;;;;4025668;29;20373;-93
2023/05/13 09:16:39;;;;;;;;;;;;;;;;;;;;;
2023/05/13 09:19:12;;;;;;;13.45;6.47;;;24.70;99.90;;;;;;4055105;29;20199;-93
2023/05/13 09:21:29;;;;;;;14.20;7.53;;;24.60;99.90;;;;;;4024853;29;20224;-94
2023/05/13 09:24:09;;;;;;;12.13;7.57;;;23.90;99.90;;;;;;4025647;29;20197;-95
2023/05/13 09:26:41;;;;;;;15.38;7.38;;;23.30;99.90;;;;;;4024267;29;20178;-94
2023/05/13 09:28:43;;;;;;;15.70;7.30;;;23.70;99.90;;;;;;4013913;29;20221;-96
2023/05/13 09:30:56;;;;;;;9.52;7.47;;;23.50;99.90;;;;;;4040244;29;20181;-95
2023/05/13 09:33:18;;;;;;;10.82;7.88;;;22.80;99.90;;;;;;4025108;29;20186;-94
2023/05/13 09:35:19;;;;;;;13.57;7.43;;;23.00;99.90;;;;;;4027377;29;20297;-93
2023/05/13 09:37:23;;;;;;;13.65;7.03;;;22.60;99.90;;;;;;4044594;29;20550;-94
2023/05/13 09:39:45;;;;;;;13.82;7.78;;;22.90;99.90;;;;;;4048342;29;20193;-94
2023/05/13 09:41:55;;;;;;;9.90;7.78;;;23.20;99.90;;;;;;4046362;29;20206;-94
2023/05/13 09:44:08;;;;;;;10.43;7.53;;;23.20;99.90;;;;;;4029627;29;20234;-93
2023/05/13 09:46:37;;;;;;;10.90;7.50;;;23.10;99.90;;;;;;4030293;29;20200;-95
2023/05/13 09:48:54;;;;;;;11.73;7.63;;;23.10;99.90;;;;;;4031413;29;20186;-95
2023/05/13 09:51:37;;;;;;;16.15;8.55;;;22.90;99.90;;;;;;4029679;29;20185;-94
2023/05/13 09:53:49;;;;;;;14.00;8.60;;;22.90;99.90;;;;;;3983026;29;20195;-94
2023/05/13 09:55:58;;;;;;;18.20;7.32;;;23.10;99.90;;;;;;4019557;29;20246;-95
2023/05/13 09:58:15;;;;;;;13.77;7.80;;;22.90;99.90;;;;;;4029916;29;20201;-94
2023/05/13 10:00:16;;;;;;;14.25;8.38;;;23.10;99.90;;;;;;4043527;29;20184;-95
2023/05/13 10:02:40;;;;;;;14.10;8.18;;;23.20;99.90;;;;;;4028728;29;20182;-95
2023/05/13 10:04:58;;;;;;;16.77;8.32;;;23.40;99.90;;;;;;4027195;29;20216;-93
2023/05/13 10:07:09;;;;;;;13.38;8.07;;;23.60;99.90;;;;;;4030856;29;20230;-96
2023/05/13 10:09:43;;;;;;;18.83;9.50;;;23.50;99.90;;;;;;4046486;29;20217;-96
2023/05/13 10:11:55;;;;;;;13.25;8.02;;;23.40;99.90;;;;;;4029730;29;20190;-93
2023/05/13 10:14:16;;;;;;;18.98;8.20;;;22.90;99.90;;;;;;4030664;29;20191;-96
2023/05/13 10:17:00;;;;;;;;;;;;;;;;;;;;;
2023/05/13 10:19:06;;;;;;;21.67;9.88;;;22.60;99.90;;;;;;4045229;29;20212;-95
2023/05/13 10:21:07;;;;;;;19.52;10.18;;;22.20;99.90;;;;;;4031216;29;20567;-94
2023/05/13 10:23:20;;;;;;;18.17;9.88;;;21.60;99.90;;;;;;4016426;29;20190;-93
2023/05/13 10:25:32;;;;;;;17.85;11.77;;;21.30;99.90;;;;;;4030060;29;20194;-94
2023/05/13 10:30:37;;;;;;;20.08;11.48;;;20.80;99.90;;;;;;4046192;29;20193;-94
2023/05/13 10:32:42;;;;;;;16.35;10.07;;;20.70;99.90;;;;;;4022652;29;20175;-95
2023/05/13 10:34:49;;;;;;;17.23;11.80;;;20.70;99.90;;;;;;4045251;29;20197;-94
2023/05/13 10:41:00;;;;;;;19.60;11.50;;;21.20;99.90;;;;;;4046010;29;20313;-96
2023/05/13 10:43:37;;;;;;;18.42;12.02;;;21.60;99.90;;;;;;4017573;29;20602;-95
2023/05/13 10:45:49;;;;;;;16.05;10.55;;;21.40;99.90;;;;;;4000152;29;20245;-96
2023/05/13 10:47:55;;;;;;;16.30;11.23;;;21.40;99.90;;;;;;3996032;29;20183;-94
2023/05/13 10:49:57;;;;;;;16.60;10.82;;;21.40;99.90;;;;;;3997013;29;20314;-93
2023/05/13 10:52:07;;;;;;;17.85;11.80;;;21.40;99.90;;;;;;4007809;29;20718;-95
2023/05/13 10:54:22;;;;;;;16.35;11.55;;;21.10;99.90;;;;;;4042679;29;20203;-95
2023/05/13 10:56:27;;;;;;;16.75;12.10;;;20.80;99.90;;;;;;4040460;29;20299;-95
2023/05/13 10:58:38;;;;;;;15.80;10.57;;;21.00;99.90;;;;;;4036131;29;20184;-95
2023/05/13 11:00:52;;;;;;;17.85;11.20;;;21.20;99.90;;;;;;4026298;29;20569;-93
2023/05/13 11:03:27;;;;;;;16.95;10.70;;;21.50;99.90;;;;;;4041456;29;20655;-94
2023/05/13 11:05:56;;;;;;;13.57;9.93;;;21.90;99.90;;;;;;4044495;29;20241;-96
2023/05/13 11:08:00;;;;;;;18.42;11.38;;;21.70;99.90;;;;;;4042144;29;20189;-95
2023/05/13 11:10:02;;;;;;;18.48;12.07;;;21.60;99.90;;;;;;4030255;29;20250;-96
2023/05/13 11:12:13;;;;;;;16.92;11.27;;;21.40;99.90;;;;;;4028466;29;20190;-96
2023/05/13 11:14:19;;;;;;;16.90;10.95;;;21.20;99.90;;;;;;4042400;29;20618;-94
2023/05/13 11:16:23;;;;;;;16.25;10.95;;;21.40;99.90;;;;;;4027569;29;20182;-93
2023/05/13 11:18:31;;;;;;;20.00;11.88;;;21.50;99.90;;;;;;4044144;29;20272;-95
2023/05/13 11:20:43;;;;;;;18.70;12.05;;;21.80;99.90;;;;;;4046405;29;20634;-94
2023/05/13 11:22:44;;;;;;;15.20;10.85;;;21.80;99.90;;;;;;4028763;29;20182;-94
2023/05/13 11:25:13;;;;;;;17.60;10.63;;;21.80;99.90;;;;;;4027940;29;20194;-96
2023/05/13 11:27:41;;;;;;;16.77;11.77;;;21.50;99.90;;;;;;4047204;29;20180;-94
2023/05/13 11:30:10;;;;;;;21.35;10.82;;;21.60;99.90;;;;;;4014942;29;20219;-93
2023/05/13 11:32:44;;;;;;;19.65;10.82;;;21.70;99.90;;;;;;4041854;29;20216;-95
2023/05/13 11:34:52;;;;;;;18.88;12.73;;;21.60;99.90;;;;;;4041461;29;20217;-96
2023/05/13 11:37:12;;;;;;;19.42;11.38;;;21.70;99.90;;;;;;4025928;29;20205;-96
2023/05/13 11:39:22;;;;;;;22.15;12.45;;;21.60;99.90;;;;;;4025752;29;20578;-92
2023/05/13 11:41:41;;;;;;;24.27;13.93;;;21.80;99.90;;;;;;4043992;29;20199;-96
2023/05/13 11:43:48;;;;;;;17.90;13.38;;;21.90;99.90;;;;;;4026659;29;20178;-95
2023/05/13 11:45:52;;;;;;;15.77;10.60;;;22.00;99.90;;;;;;4027111;29;20182;-96
2023/05/13 11:47:54;;;;;;;23.40;11.85;;;21.80;99.90;;;;;;4042240;29;20181;-96
2023/05/13 11:50:31;;;;;;;18.90;12.10;;;21.70;99.90;;;;;;4026917;29;20321;-95
2023/05/13 11:52:35;;;;;;;19.25;12.10;;;21.60;99.90;;;;;;4043963;29;20189;-96
2023/05/13 11:54:46;;;;;;;20.20;13.27;;;21.80;99.90;;;;;;4027009;29;20194;-95
2023/05/13 11:56:49;;;;;;;21.10;12.85;;;21.70;99.90;;;;;;4027641;29;20190;-93
2023/05/13 11:58:57;;;;;;;25.50;13.15;;;21.60;99.90;;;;;;4045457;29;20185;-94
2023/05/13 12:01:27;;;;;;;22.98;12.98;;;21.40;99.90;;;;;;4026048;29;20224;-96
2023/05/13 12:03:39;;;;;;;23.48;12.82;;;21.70;99.90;;;;;;4023274;29;20214;-96
2023/05/13 12:05:43;;;;;;;19.30;13.45;;;21.90;99.90;;;;;;4028584;29;20194;-94
2023/05/13 12:07:56;;;;;;;20.73;13.15;;;22.30;99.90;;;;;;4028726;29;20230;-94
2023/05/13 12:10:02;;;;;;;21.23;15.02;;;22.00;99.90;;;;;;4026877;29;20381;-94
2023/05/13 12:12:03;;;;;;;20.77;14.48;;;22.00;99.90;;;;;;4026519;29;20667;-96
2023/05/13 12:14:14;;;;;;;21.10;15.27;;;22.00;99.90;;;;;;4031422;29;20233;-96
2023/05/13 12:16:21;;;;;;;19.58;14.80;;;22.10;99.90;;;;;;4017707;29;20598;-96
2023/05/13 12:18:57;;;;;;;20.27;14.70;;;22.20;99.90;;;;;;4029493;29;20592;-95
2023/05/13 12:21:00;;;;;;;29.33;15.15;;;22.20;99.90;;;;;;4030638;29;20182;-94
2023/05/13 12:23:14;;;;;;;24.63;14.00;;;22.20;99.90;;;;;;4045896;29;20181;-96
2023/05/13 12:25:41;;;;;;;24.08;13.65;;;22.00;99.90;;;;;;4029519;29;20194;-95
2023/05/13 12:28:12;;;;;;;19.67;13.05;;;22.30;99.90;;;;;;4046595;29;20181;-95
2023/05/13 12:30:26;;;;;;;23.55;12.65;;;22.30;99.90;;;;;;4045780;29;20197;-95
2023/05/13 12:37:33;;;;;;;25.70;13.73;;;22.40;99.90;;;;;;4014570;29;20632;-93
2023/05/13 12:39:34;;;;;;;17.95;12.98;;;22.40;99.90;;;;;;4015812;29;20171;-94
2023/05/13 12:41:42;;;;;;;23.17;14.02;;;22.60;99.90;;;;;;4042012;29;20642;-96
2023/05/13 12:43:43;;;;;;;23.98;13.43;;;22.90;99.90;;;;;;4026197;29;20274;-96
2023/05/13 12:46:14;;;;;;;26.42;14.50;;;22.90;99.90;;;;;;4031816;29;20182;-94
2023/05/13 12:48:21;;;;;;;22.95;14.63;;;22.80;99.90;;;;;;4015742;29;20185;-94
2023/05/13 12:50:34;;;;;;;27.42;13.30;;;22.90;99.90;;;;;;4030846;29;20216;-95
2023/05/13 12:52:41;;;;;;;25.42;12.70;;;22.60;99.90;;;;;;4046206;29;20173;-95
2023/05/13 12:54:44;;;;;;;27.70;13.98;;;22.60;99.90;;;;;;4032665;29;20194;-95
2023/05/13 12:56:56;;;;;;;24.83;14.30;;;22.70;99.90;;;;;;4028460;29;20235;-96
2023/05/13 12:59:28;;;;;;;22.27;12.70;;;22.50;99.90;;;;;;4029728;29;20219;-95
2023/05/13 13:01:41;;;;;;;31.67;12.88;;;22.60;99.90;;;;;;4003212;29;20187;-96
2023/05/13 13:04:15;;;;;;;23.30;12.23;;;22.70;99.90;;;;;;4210960;23;20199;-94
2023/05/13 13:06:16;;;;;;;31.65;13.65;;;22.70;99.90;;;;;;4043640;29;20182;-96
2023/05/13 13:08:23;;;;;;;58.17;14.07;;;22.80;99.90;;;;;;4026993;29;20182;-95
2023/05/13 13:10:33;;;;;;;23.33;12.85;;;23.00;99.90;;;;;;4023757;29;20218;-95
2023/05/13 13:12:34;;;;;;;23.48;12.48;;;22.90;99.90;;;;;;4026580;29;20643;-96
2023/05/13 13:14:38;;;;;;;23.83;12.70;;;23.00;99.90;;;;;;4027208;29;20265;-94
2023/05/13 13:16:39;;;;;;;29.83;12.57;;;23.10;99.90;;;;;;4025501;29;20170;-94
2023/05/13 13:18:42;;;;;;;23.13;12.60;;;23.00;99.90;;;;;;4039550;29;20305;-93
2023/05/13 13:21:04;;;;;;;26.15;13.18;;;22.80;99.90;;;;;;4022856;29;20186;-95
2023/05/13 13:23:25;;;;;;;24.23;12.43;;;22.60;99.90;;;;;;4041941;29;20181;-94
2023/05/13 13:25:33;;;;;;;26.92;12.48;;;22.70;99.90;;;;;;4025226;29;20213;-95
2023/05/13 13:27:37;;;;;;;27.05;14.00;;;22.80;99.90;;;;;;4024196;29;20647;-95
2023/05/13 13:29:38;;;;;;;30.60;13.70;;;23.00;99.90;;;;;;4023170;29;20218;-96
2023/05/13 13:31:45;;;;;;;26.70;12.50;;;23.00;99.90;;;;;;4023946;29;20175;-92
2023/05/13 13:33:56;;;;;;;25.00;12.32;;;22.80;99.90;;;;;;4025562;29;20269;-96
2023/05/13 13:36:01;;;;;;;29.33;13.63;;;23.00;99.90;;;;;;4024784;29;20186;-95
2023/05/13 13:38:15;;;;;;;33.58;12.98;;;23.10;99.90;;;;;;4039685;29;20193;-96
2023/05/13 13:40:19;;;;;;;27.23;13.25;;;23.00;99.90;;;;;;4023657;29;20261;-95
2023/05/13 13:42:31;;;;;;;25.33;13.18;;;23.30;99.90;;;;;;4026391;29;20270;-95
2023/05/13 13:44:40;;;;;;;30.33;13.85;;;23.00;99.90;;;;;;4025003;29;20205;-93
2023/05/13 13:46:43;;;;;;;21.27;11.48;;;22.70;99.90;;;;;;4026454;29;20266;-96
2023/05/13 13:48:52;;;;;;;24.02;12.43;;;22.30;99.90;;;;;;4026206;29;20177;-96
2023/05/13 13:50:53;;;;;;;22.30;11.95;;;22.30;99.90;;;;;;4024530;29;20189;-96
2023/05/13 13:53:12;;;;;;;27.02;12.82;;;22.30;99.90;;;;;;4023797;29;20270;-95
2023/05/13 13:55:15;;;;;;;25.42;13.15;;;22.60;99.90;;;;;;4023389;29;20198;-96
2023/05/13 13:57:16;;;;;;;26.00;14.13;;;22.70;99.90;;;;;;4022884;29;20262;-96
2023/05/13 13:59:18;;;;;;;24.65;12.77;;;22.50;99.90;;;;;;4025241;29;20178;-96
2023/05/13 14:01:19;;;;;;;22.65;12.27;;;22.40;99.90;;;;;;4039452;29;20278;-96
2023/05/13 14:03:20;;;;;;;24.63;12.88;;;22.50;99.90;;;;;;4038806;29;20174;-95
2023/05/13 14:05:32;;;;;;;21.05;12.38;;;22.70;99.90;;;;;;4038279;29;20293;-95
2023/05/13 14:07:36;;;;;;;20.05;11.77;;;22.70;99.90;;;;;;4039936;29;20170;-95
2023/05/13 14:09:49;;;;;;;27.83;13.30;;;22.40;99.90;;;;;;4026942;29;20250;-95
2023/05/13 14:11:50;;;;;;;27.00;14.48;;;22.20;99.90;;;;;;4024502;29;20179;-95
2023/05/13 14:13:51;;;;;;;26.15;14.68;;;22.20;99.90;;;;;;4041110;29;20182;-96
2023/05/13 14:18:25;;;;;;;26.70;14.13;;;22.60;99.90;;;;;;4038195;29;20190;-96
2023/05/13 14:20:47;;;;;;;29.13;15.10;;;22.70;99.90;;;;;;4025878;29;20181;-93
2023/05/13 14:23:11;;;;;;;24.17;14.05;;;22.80;99.90;;;;;;4025890;29;20662;-96
2023/05/13 14:25:44;;;;;;;25.50;14.40;;;23.00;99.90;;;;;;4058417;29;20198;-95
2023/05/13 14:28:11;;;;;;;27.55;15.20;;;22.60;99.90;;;;;;4026279;29;20210;-95
2023/05/13 14:30:31;;;;;;;36.05;16.38;;;22.60;99.90;;;;;;4057381;29;20216;-96
2023/05/13 14:32:44;;;;;;;30.48;14.43;;;22.70;99.90;;;;;;4026575;29;20175;-94
2023/05/13 14:34:52;;;;;;;29.73;15.45;;;22.60;99.90;;;;;;4026314;29;20260;-95
2023/05/13 14:37:26;;;;;;;26.75;14.85;;;22.90;99.90;;;;;;4026425;29;20182;-95
2023/05/13 14:39:36;;;;;;;27.73;15.80;;;23.00;99.90;;;;;;4024743;29;20179;-94
2023/05/13 14:41:41;;;;;;;31.52;15.25;;;22.80;99.90;;;;;;4025079;29;20551;-94
2023/05/13 14:44:15;;;;;;;28.35;14.35;;;22.50;99.90;;;;;;4024459;29;20285;-95
2023/05/13 14:46:43;;;;;;;27.83;14.35;;;22.30;99.90;;;;;;4019021;29;20613;-95
2023/05/13 14:48:45;;;;;;;22.77;14.60;;;22.10;99.90;;;;;;4039813;29;20196;-94
2023/05/13 14:50:55;;;;;;;27.15;15.40;;;21.90;99.90;;;;;;4024393;29;20194;-95
2023/05/13 14:53:00;;;;;;;27.92;14.57;;;21.80;99.90;;;;;;4025461;29;20186;-94
2023/05/13 14:55:04;;;;;;;27.73;14.68;;;21.50;99.90;;;;;;4024156;29;20293;-95
2023/05/13 14:57:11;;;;;;;33.65;15.95;;;21.50;99.90;;;;;;4024238;29;20229;-95
2023/05/13 14:59:46;;;;;;;24.55;14.48;;;21.70;99.90;;;;;;4024182;29;20186;-94
2023/05/13 15:02:12;;;;;;;29.15;14.15;;;21.90;99.90;;;;;;4041148;29;20188;-95
2023/05/13 15:04:13;;;;;;;26.95;14.48;;;21.80;99.90;;;;;;4023903;29;20253;-92
2023/05/13 15:06:14;;;;;;;27.50;12.93;;;21.80;99.90;;;;;;4024456;29;20186;-93
2023/05/13 15:08:15;;;;;;;24.75;12.80;;;21.70;99.90;;;;;;4024184;29;20265;-91
2023/05/13 15:10:16;;;;;;;21.55;13.00;;;21.80;99.90;;;;;;4024300;29;20226;-94
2023/05/13 15:12:17;;;;;;;31.25;13.90;;;22.00;99.90;;;;;;4024257;29;20221;-93
2023/05/13 15:14:19;;;;;;;27.85;13.63;;;22.20;99.90;;;;;;4039427;29;20208;-94
2023/05/13 15:16:21;;;;;;;26.67;13.45;;;22.20;99.90;;;;;;4024238;29;20174;-95
2023/05/13 15:18:21;;;;;;;26.98;12.88;;;22.40;99.90;;;;;;4024296;29;20179;-93
2023/05/13 15:20:22;;;;;;;22.13;12.85;;;22.50;99.90;;;;;;4039115;29;20230;-91
2023/05/13 15:22:23;;;;;;;28.10;14.23;;;22.70;99.90;;;;;;4024025;29;20178;-92
2023/05/13 15:24:24;;;;;;;28.05;13.70;;;22.80;99.90;;;;;;4023951;29;20201;-92
2023/05/13 15:26:25;;;;;;;27.85;13.38;;;22.70;99.90;;;;;;4039531;29;20274;-91
2023/05/13 15:28:27;;;;;;;30.90;14.55;;;22.80;99.90;;;;;;4038728;29;20166;-91
2023/05/13 15:30:28;;;;;;;23.92;12.23;;;22.70;99.90;;;;;;4039393;29;20289;-92
2023/05/13 15:32:29;;;;;;;22.02;12.18;;;22.70;99.90;;;;;;4038750;29;20211;-93
2023/05/13 15:34:30;;;;;;;21.42;11.32;;;22.60;99.90;;;;;;4008477;29;20199;-92
2023/05/13 15:36:34;;;;;;;20.60;11.25;;;22.20;99.90;;;;;;4038936;29;20178;-91
2023/05/13 15:38:36;;;;;;;24.88;11.05;;;21.90;99.90;;;;;;4038838;29;20190;-91
2023/05/13 15:40:39;;;;;;;19.17;9.73;;;21.90;99.90;;;;;;4008449;29;20273;-94
2023/05/13 15:42:40;;;;;;;18.08;8.45;;;21.90;99.90;;;;;;4008585;29;20214;-92
2023/05/13 15:44:40;;;;;;;18.85;9.70;;;21.80;99.90;;;;;;4037153;29;20532;-92
2023/05/13 15:46:41;;;;;;;15.73;9.75;;;21.50;99.90;;;;;;4023855;29;20562;-91
2023/05/13 15:48:42;;;;;;;23.17;11.55;;;21.30;99.90;;;;;;4023296;29;20182;-92
2023/05/13 15:50:43;;;;;;;26.17;11.82;;;20.90;99.90;;;;;;4023833;29;20186;-91
2023/05/13 15:52:44;;;;;;;26.00;13.02;;;20.80;99.90;;;;;;4023375;29;20214;-90